createdAt,value
2019-02-12T00:01:22.568Z,4.58
2019-02-12T00:06:25.005Z,4.63
2019-02-12T00:11:27.443Z,4.71
2019-02-12T00:16:29.875Z,4.68
2019-02-12T00:21:32.316Z,4.55
2019-02-12T00:26:34.750Z,4.45
2019-02-12T00:31:37.189Z,4.38
2019-02-12T00:36:39.620Z,4.33
2019-02-12T00:41:42.102Z,4.25
2019-02-12T00:46:44.554Z,4.25
2019-02-12T00:51:47.001Z,4.13
2019-02-12T00:56:49.433Z,4.10
2019-02-12T01:01:51.869Z,4.06
2019-02-12T01:06:54.296Z,3.96
2019-02-12T01:11:56.731Z,3.84
2019-02-12T01:16:59.173Z,3.59
2019-02-12T01:22:01.609Z,3.31
2019-02-12T01:27:04.044Z,3.28
2019-02-12T01:32:06.483Z,2.90
2019-02-12T01:37:08.918Z,2.79
2019-02-12T01:42:11.599Z,2.77
2019-02-12T01:47:14.051Z,2.70
2019-02-12T01:52:16.483Z,2.68
2019-02-12T01:57:18.919Z,2.85
2019-02-12T02:02:21.362Z,3.01
2019-02-12T02:07:23.790Z,2.95
2019-02-12T02:12:26.223Z,2.95
2019-02-12T02:17:28.656Z,2.83
2019-02-12T02:22:31.091Z,2.86
2019-02-12T02:27:33.536Z,2.99
2019-02-12T02:32:35.979Z,3.32
2019-02-12T02:37:38.416Z,3.31
2019-02-12T02:42:40.850Z,3.47
2019-02-12T02:47:43.283Z,3.61
2019-02-12T02:52:45.722Z,3.92
2019-02-12T02:57:48.192Z,4.05
2019-02-12T03:02:50.628Z,3.75
2019-02-12T03:07:53.074Z,3.69
2019-02-12T03:12:55.506Z,3.84
2019-02-12T03:17:57.954Z,3.78
2019-02-12T03:23:00.391Z,3.75
2019-02-12T03:28:02.843Z,3.64
2019-02-12T03:33:05.291Z,3.58
2019-02-12T03:38:07.708Z,3.58
2019-02-12T03:43:10.148Z,3.68
2019-02-12T03:48:12.599Z,3.65
2019-02-12T03:53:15.042Z,3.81
2019-02-12T03:58:17.471Z,3.88
2019-02-12T04:03:19.909Z,3.81
2019-02-12T04:08:22.348Z,3.83
2019-02-12T04:13:24.805Z,3.83
2019-02-12T04:18:27.255Z,3.84
2019-02-12T04:23:29.683Z,3.98
2019-02-12T04:28:32.135Z,3.86
2019-02-12T04:33:34.573Z,3.70
2019-02-12T04:38:37.004Z,3.64
2019-02-12T04:43:39.438Z,3.81
2019-02-12T04:48:41.876Z,3.93
2019-02-12T04:53:44.307Z,4.08
2019-02-12T04:58:46.754Z,4.11
2019-02-12T05:03:49.555Z,4.26
2019-02-12T05:09:09.417Z,4.29
2019-02-12T05:14:11.887Z,4.21
2019-02-12T05:19:14.345Z,4.25
2019-02-12T05:24:16.778Z,4.21
2019-02-12T05:29:19.210Z,4.18
2019-02-12T05:34:21.641Z,4.14
2019-02-12T05:39:24.070Z,3.99
2019-02-12T05:44:26.520Z,3.84
2019-02-12T05:49:28.960Z,3.58
2019-02-12T05:54:31.403Z,3.65
2019-02-12T05:59:33.823Z,3.73
2019-02-12T06:04:36.280Z,3.58
2019-02-12T06:09:38.732Z,3.35
2019-02-12T06:14:41.166Z,3.23
2019-02-12T06:19:43.606Z,3.07
2019-02-12T06:24:46.094Z,3.11
2019-02-12T06:29:48.535Z,3.10
2019-02-12T06:34:50.979Z,3.01
2019-02-12T06:39:53.435Z,2.89
2019-02-12T06:44:55.876Z,2.96
2019-02-12T06:49:58.481Z,3.03
2019-02-12T06:55:00.936Z,3.11
2019-02-12T07:00:03.366Z,3.15
2019-02-12T07:05:05.805Z,3.18
2019-02-12T07:10:08.326Z,3.43
2019-02-12T07:15:10.708Z,3.82
2019-02-12T07:20:22.055Z,3.89
2019-02-12T07:25:52.326Z,4.12
2019-02-12T07:30:57.620Z,3.97
2019-02-12T07:36:24.214Z,4.17
2019-02-12T07:41:41.713Z,4.19
2019-02-12T07:47:11.458Z,4.24
2019-02-12T07:52:25.952Z,4.24
2019-02-12T07:57:55.815Z,4.62
2019-02-12T08:03:19.814Z,4.83
2019-02-12T08:08:28.394Z,4.85
2019-02-12T08:13:49.284Z,4.90
2019-02-12T08:19:15.588Z,5.25
2019-02-12T08:24:30.093Z,5.42
2019-02-12T08:29:35.264Z,5.55
2019-02-12T08:34:46.575Z,5.43
2019-02-12T08:39:57.970Z,5.61
2019-02-12T08:45:19.203Z,5.39
2019-02-12T08:50:46.082Z,5.40
2019-02-12T08:55:48.513Z,5.55
2019-02-12T09:00:50.962Z,5.83
2019-02-12T09:06:14.560Z,6.44
2019-02-12T09:11:17.007Z,6.56
2019-02-12T09:16:19.506Z,6.31
2019-02-12T09:21:46.616Z,6.13
2019-02-12T09:27:07.676Z,5.81
2019-02-12T09:32:43.839Z,6.18
2019-02-12T09:38:07.413Z,6.80
2019-02-12T09:43:34.268Z,7.86
2019-02-12T09:49:01.202Z,8.25
2019-02-12T09:54:15.583Z,9.17
2019-02-12T09:59:18.073Z,10.52
2019-02-12T10:04:32.251Z,11.59
2019-02-12T10:09:43.805Z,10.58
2019-02-12T10:14:54.932Z,10.36
2019-02-12T10:20:15.764Z,10.36
2019-02-12T10:25:18.214Z,10.51
2019-02-12T10:30:29.655Z,11.27
2019-02-12T10:35:32.089Z,11.18
2019-02-12T10:40:34.542Z,11.34
2019-02-12T10:45:36.988Z,11.33
2019-02-12T10:50:39.489Z,11.84
2019-02-12T10:55:41.928Z,12.21
2019-02-12T11:00:44.370Z,12.24
2019-02-12T11:05:46.818Z,11.92
2019-02-12T11:10:49.266Z,10.80
2019-02-12T11:15:51.703Z,10.50
2019-02-12T11:20:54.268Z,10.44
2019-02-12T11:25:56.706Z,9.96
2019-02-12T11:30:59.135Z,9.58
2019-02-12T11:36:01.601Z,9.91
2019-02-12T11:41:04.062Z,9.91
2019-02-12T11:46:06.508Z,9.79
2019-02-12T11:51:08.961Z,9.97
2019-02-12T11:56:11.391Z,9.75
2019-02-12T12:01:13.830Z,9.80
2019-02-12T12:06:16.271Z,9.98
2019-02-12T12:11:18.706Z,10.64
2019-02-12T12:16:21.160Z,11.08
2019-02-12T12:21:23.598Z,11.02
2019-02-12T12:26:26.064Z,10.84
2019-02-12T12:31:28.543Z,10.96
2019-02-12T12:36:30.994Z,11.13
2019-02-12T12:41:33.429Z,11.26
2019-02-12T12:46:35.879Z,11.38
2019-02-12T12:51:38.318Z,11.56
2019-02-12T12:56:40.762Z,11.92
2019-02-12T13:01:43.198Z,11.84
2019-02-12T13:06:45.647Z,12.34
2019-02-12T13:11:48.092Z,12.55
2019-02-12T13:16:50.532Z,12.65
2019-02-12T13:21:52.983Z,12.68
2019-02-12T13:26:55.422Z,12.41
2019-02-12T13:31:57.871Z,12.08
2019-02-12T13:37:00.340Z,11.85
2019-02-12T13:42:02.977Z,11.42
2019-02-12T13:47:05.415Z,11.02
2019-02-12T13:52:07.857Z,11.39
2019-02-12T13:57:10.303Z,11.29
2019-02-12T14:02:12.743Z,11.36
2019-02-12T14:07:15.198Z,10.60
2019-02-12T14:12:17.655Z,10.34
2019-02-12T14:17:20.083Z,10.17
2019-02-12T14:22:22.527Z,9.91
2019-02-12T14:27:24.978Z,9.88
2019-02-12T14:32:27.422Z,10.08
2019-02-12T14:37:29.863Z,9.72
2019-02-12T14:42:32.296Z,9.57
2019-02-12T14:47:34.732Z,9.62
2019-02-12T14:52:37.169Z,9.78
2019-02-12T14:57:39.609Z,9.96
2019-02-12T15:02:42.054Z,10.20
2019-02-12T15:07:44.496Z,10.34
2019-02-12T15:12:46.941Z,10.37
2019-02-12T15:17:49.382Z,10.31
2019-02-12T15:22:51.827Z,10.36
2019-02-12T15:27:54.303Z,10.25
2019-02-12T15:32:56.737Z,10.24
2019-02-12T15:37:59.177Z,9.95
2019-02-12T15:43:01.627Z,9.67
2019-02-12T15:48:04.537Z,9.45
2019-02-12T15:53:06.966Z,9.14
2019-02-12T15:58:09.751Z,8.93
2019-02-12T16:03:12.187Z,8.76
2019-02-12T16:08:14.715Z,8.66
2019-02-12T16:13:17.168Z,8.62
2019-02-12T16:18:21.403Z,8.56
2019-02-12T16:23:22.083Z,8.46
2019-02-12T16:28:24.520Z,8.34
2019-02-12T16:33:26.979Z,8.21
2019-02-12T16:38:29.431Z,8.08
2019-02-12T16:43:31.872Z,8.02
2019-02-12T16:48:36.147Z,7.91
2019-02-12T16:53:36.776Z,7.84
2019-02-12T16:58:39.294Z,7.72
2019-02-12T17:03:41.813Z,7.65
2019-02-12T17:08:44.354Z,7.67
2019-02-12T17:13:46.804Z,7.73
2019-02-12T17:18:49.246Z,7.75
2019-02-12T17:23:51.710Z,7.74
2019-02-12T17:28:54.304Z,7.65
2019-02-12T17:33:56.748Z,7.58
2019-02-12T17:38:59.197Z,7.55
2019-02-12T17:44:01.669Z,7.48
2019-02-12T17:49:04.182Z,7.41
2019-02-12T17:54:06.693Z,7.37
2019-02-12T17:59:09.165Z,7.31
2019-02-12T18:04:11.635Z,7.19
2019-02-12T18:09:14.071Z,7.22
2019-02-12T18:14:16.515Z,7.22
2019-02-12T18:19:18.953Z,7.18
2019-02-12T18:24:22.562Z,7.13
2019-02-12T18:29:25.007Z,7.01
2019-02-12T18:34:27.550Z,6.93
2019-02-12T18:39:30.009Z,6.82
2019-02-12T18:44:32.455Z,6.56
2019-02-12T18:49:34.914Z,6.49
2019-02-12T18:54:37.364Z,6.51
2019-02-12T18:59:39.801Z,6.52
2019-02-12T19:04:42.259Z,6.49
2019-02-12T19:09:44.736Z,6.45
2019-02-12T19:14:47.570Z,6.39
2019-02-12T19:19:50.060Z,6.24
2019-02-12T19:24:52.511Z,6.02
2019-02-12T19:29:54.959Z,5.96
2019-02-12T19:34:57.419Z,5.91
2019-02-12T19:39:59.860Z,5.90
2019-02-12T19:45:02.313Z,5.82
2019-02-12T19:50:04.751Z,5.55
2019-02-12T19:55:10.126Z,5.45
2019-02-12T20:00:15.594Z,5.24
2019-02-12T20:05:18.051Z,5.11
2019-02-12T20:10:20.515Z,5.00
2019-02-12T20:15:22.993Z,4.94
2019-02-12T20:20:25.454Z,4.78
2019-02-12T20:25:27.913Z,4.64
2019-02-12T20:30:30.381Z,4.44
2019-02-12T20:35:36.449Z,4.50
2019-02-12T20:40:35.538Z,4.24
2019-02-12T20:45:38.040Z,4.24
2019-02-12T20:50:40.520Z,4.18
2019-02-12T20:55:42.968Z,4.11
2019-02-12T21:00:45.424Z,3.91
2019-02-12T21:05:47.881Z,3.76
2019-02-12T21:10:50.605Z,3.69
2019-02-12T21:15:53.060Z,3.73
2019-02-12T21:20:55.519Z,3.58
2019-02-12T21:25:57.990Z,3.43
2019-02-12T21:31:00.418Z,3.36
2019-02-12T21:36:06.267Z,3.27
2019-02-12T21:41:08.724Z,3.14
2019-02-12T21:46:11.178Z,3.19
2019-02-12T21:51:13.640Z,3.16
2019-02-12T21:56:16.075Z,3.13
2019-02-12T22:01:18.567Z,2.97
2019-02-12T22:06:21.009Z,2.91
2019-02-12T22:11:23.445Z,2.79
2019-02-12T22:16:25.896Z,2.59
2019-02-12T22:21:28.338Z,2.61
2019-02-12T22:26:30.792Z,2.56
2019-02-12T22:31:33.229Z,2.49
2019-02-12T22:36:35.671Z,2.60
2019-02-12T22:41:38.102Z,2.76
2019-02-12T22:46:40.547Z,2.52
2019-02-12T22:51:43.016Z,2.38
2019-02-12T22:56:45.452Z,2.27
2019-02-12T23:01:47.889Z,2.32
2019-02-12T23:06:50.332Z,2.32
2019-02-12T23:11:52.781Z,2.31
2019-02-12T23:16:55.237Z,2.25
2019-02-12T23:21:57.687Z,2.31
2019-02-12T23:27:00.129Z,2.21
2019-02-12T23:32:02.555Z,2.05
2019-02-12T23:37:05.002Z,2.12
2019-02-12T23:42:07.449Z,2.07
2019-02-12T23:47:09.897Z,2.06
2019-02-12T23:52:12.334Z,2.11
2019-02-12T23:57:14.778Z,2.07
